Time;durP1;ratioP1;P1;durP2;ratioP2;P2;SDS_P1;SDS_P2;PMS_P1;PMS_P2;Temp;Humidity;BMP_temperature;BMP_pressure;BME280_temperature;BME280_humidity;BME280_pressure;Samples;Min_cycle;Max_cycle;Signal;HPM_P1;HPM_P2
2023/03/09 00:00:52;;;;;;;1.60;1.30;;;4.40;98.20;;;;;;5054509;28;20469;-77
2023/03/09 00:03:20;;;;;;;1.60;1.27;;;4.40;98.20;;;;;;5071925;28;20465;-78
2023/03/09 00:05:53;;;;;;;1.60;1.40;;;4.40;98.20;;;;;;5058757;28;20474;-77
2023/03/09 00:08:20;;;;;;;1.60;1.30;;;4.40;98.20;;;;;;5052771;28;20461;-77
2023/03/09 00:10:50;;;;;;;1.63;1.40;;;4.40;98.20;;;;;;5068455;28;20461;-79
2023/03/09 00:13:17;;;;;;;1.60;1.30;;;4.30;98.20;;;;;;5047122;28;20480;-78
2023/03/09 00:15:49;;;;;;;1.60;1.40;;;4.30;98.20;;;;;;5071848;28;20583;-78
2023/03/09 00:18:16;;;;;;;1.60;1.40;;;4.30;98.20;;;;;;5038184;28;20461;-77
2023/03/09 00:20:45;;;;;;;1.60;1.30;;;4.30;98.20;;;;;;5067438;28;20461;-77
2023/03/09 00:23:12;;;;;;;1.60;1.30;;;4.30;98.20;;;;;;5062463;28;20480;-79
2023/03/09 00:25:39;;;;;;;1.60;1.30;;;4.30;98.20;;;;;;5059412;28;20570;-77
2023/03/09 00:28:06;;;;;;;1.60;1.30;;;4.30;98.20;;;;;;5057884;28;20480;-76
2023/03/09 00:30:33;;;;;;;1.60;1.37;;;4.30;98.20;;;;;;5070529;28;20449;-75
2023/03/09 00:33:00;;;;;;;1.60;1.30;;;4.30;98.20;;;;;;5062965;28;20481;-78
2023/03/09 00:35:27;;;;;;;1.60;1.30;;;4.30;98.20;;;;;;5061751;28;21009;-77
2023/03/09 00:37:55;;;;;;;1.60;1.23;;;4.30;98.20;;;;;;5056482;28;20491;-78
2023/03/09 00:40:22;;;;;;;1.60;1.40;;;4.30;98.20;;;;;;5072573;28;20546;-78
2023/03/09 00:42:49;;;;;;;1.60;1.40;;;4.30;98.20;;;;;;5060480;28;20473;-77
2023/03/09 00:45:17;;;;;;;1.60;1.40;;;4.30;98.20;;;;;;5070047;28;20481;-75
2023/03/09 00:47:44;;;;;;;1.60;1.40;;;4.30;98.20;;;;;;5050001;28;20568;-81
2023/03/09 00:50:12;;;;;;;1.60;1.40;;;4.30;98.20;;;;;;5062418;28;20932;-76
2023/03/09 00:52:38;;;;;;;1.70;1.50;;;4.40;98.20;;;;;;5059036;28;20486;-75
2023/03/09 00:55:07;;;;;;;1.60;1.30;;;4.40;98.20;;;;;;5068152;28;20486;-75
2023/03/09 00:57:35;;;;;;;1.60;1.30;;;4.40;98.20;;;;;;5047180;28;20626;-76
2023/03/09 01:00:04;;;;;;;1.60;1.30;;;4.40;98.20;;;;;;5064932;28;20507;-75
2023/03/09 01:02:30;;;;;;;1.60;1.30;;;4.40;98.20;;;;;;5043174;28;20857;-75
2023/03/09 01:04:58;;;;;;;1.60;1.30;;;4.40;98.20;;;;;;5061703;28;20482;-76
2023/03/09 01:07:25;;;;;;;1.60;1.40;;;4.40;98.20;;;;;;5050199;28;20489;-76
2023/03/09 01:09:52;;;;;;;1.60;1.40;;;4.40;98.20;;;;;;5061502;28;20461;-76
2023/03/09 01:12:20;;;;;;;1.60;1.30;;;4.40;98.20;;;;;;5052598;28;20481;-75
2023/03/09 01:14:48;;;;;;;1.60;1.30;;;4.40;98.20;;;;;;5060675;28;20509;-77
2023/03/09 01:17:15;;;;;;;1.60;1.30;;;4.40;98.20;;;;;;5056246;28;20556;-75
2023/03/09 01:19:42;;;;;;;1.60;1.50;;;4.40;98.20;;;;;;5067680;28;20464;-75
2023/03/09 01:22:08;;;;;;;1.60;1.30;;;4.40;98.20;;;;;;5057913;28;20486;-76
2023/03/09 01:24:35;;;;;;;1.60;1.33;;;4.40;98.20;;;;;;5055406;28;20478;-76
2023/03/09 01:27:02;;;;;;;1.60;1.30;;;4.40;98.20;;;;;;5048743;28;20618;-73
2023/03/09 01:29:30;;;;;;;1.60;1.40;;;4.40;98.20;;;;;;5055685;28;20459;-76
2023/03/09 01:31:57;;;;;;;1.60;1.30;;;4.40;98.20;;;;;;5040595;28;20478;-76
2023/03/09 01:34:24;;;;;;;1.60;1.30;;;4.50;98.20;;;;;;5058651;28;20867;-75
2023/03/09 01:36:50;;;;;;;1.60;1.30;;;4.50;98.20;;;;;;5050381;28;20482;-76
2023/03/09 01:39:17;;;;;;;1.60;1.30;;;4.40;98.20;;;;;;5051469;28;20464;-76
2023/03/09 01:41:44;;;;;;;1.60;1.30;;;4.40;98.20;;;;;;5049819;28;20493;-73
2023/03/09 01:44:13;;;;;;;1.60;1.30;;;4.40;98.20;;;;;;5061381;28;20472;-73
2023/03/09 01:46:47;;;;;;;1.60;1.43;;;4.40;98.20;;;;;;5056063;28;20500;-73
2023/03/09 01:49:35;;;;;;;1.60;1.40;;;4.40;98.20;;;;;;5053872;28;21013;-75
2023/03/09 01:52:10;;;;;;;1.60;1.30;;;4.40;98.20;;;;;;5055094;28;20894;-75
2023/03/09 01:54:44;;;;;;;1.60;1.40;;;4.40;98.20;;;;;;5060097;28;20896;-74
2023/03/09 01:57:17;;;;;;;1.70;1.53;;;4.40;98.20;;;;;;5044432;28;20474;-73
2023/03/09 01:59:46;;;;;;;1.60;1.30;;;4.30;98.20;;;;;;5059478;28;20446;-77
2023/03/09 02:02:16;;;;;;;1.60;1.30;;;4.30;98.20;;;;;;5050800;28;20477;-75
2023/03/09 02:04:46;;;;;;;1.60;1.40;;;4.20;98.20;;;;;;5060081;28;20500;-75
2023/03/09 02:07:16;;;;;;;2.00;1.77;;;4.20;98.20;;;;;;5037178;28;20490;-75
2023/03/09 02:09:48;;;;;;;1.60;1.30;;;4.10;98.20;;;;;;5054879;28;20468;-74
2023/03/09 02:12:18;;;;;;;1.60;1.33;;;4.10;98.20;;;;;;5060236;28;20472;-73
2023/03/09 02:14:45;;;;;;;1.60;1.30;;;4.00;98.20;;;;;;5052028;28;20932;-73
2023/03/09 02:17:15;;;;;;;1.60;1.37;;;4.00;98.20;;;;;;5053056;28;20477;-73
2023/03/09 02:20:01;;;;;;;1.60;1.40;;;4.00;98.20;;;;;;5066471;28;20494;-74
2023/03/09 02:22:27;;;;;;;1.60;1.40;;;4.00;98.20;;;;;;5050612;28;20489;-75
2023/03/09 02:25:09;;;;;;;1.67;1.50;;;4.00;98.20;;;;;;5064845;28;20484;-75
2023/03/09 02:27:37;;;;;;;1.60;1.30;;;3.90;98.20;;;;;;5046264;28;20528;-76
2023/03/09 02:30:06;;;;;;;1.60;1.30;;;3.90;98.20;;;;;;5066835;28;20465;-76
2023/03/09 02:32:33;;;;;;;1.63;1.40;;;3.90;98.20;;;;;;5056440;28;20877;-77
2023/03/09 02:35:00;;;;;;;4.27;3.97;;;3.90;98.20;;;;;;5066396;28;20609;-76
2023/03/09 02:37:31;;;;;;;1.60;1.37;;;3.90;98.20;;;;;;5054913;28;20470;-73
2023/03/09 02:40:04;;;;;;;1.60;1.30;;;3.80;98.20;;;;;;5068914;28;20594;-73
2023/03/09 02:42:31;;;;;;;1.70;1.60;;;3.80;98.20;;;;;;5052603;28;20480;-73
2023/03/09 02:45:00;;;;;;;1.70;1.60;;;3.80;98.20;;;;;;5067340;28;20855;-73
2023/03/09 02:47:27;;;;;;;1.60;1.30;;;3.80;98.20;;;;;;5058213;28;20527;-76
2023/03/09 02:49:54;;;;;;;1.60;1.30;;;3.80;98.20;;;;;;5066130;28;20476;-74
2023/03/09 02:52:21;;;;;;;1.60;1.40;;;3.80;98.20;;;;;;5056786;28;20488;-74
2023/03/09 02:54:47;;;;;;;1.60;1.30;;;3.80;98.20;;;;;;5063258;28;20993;-74
2023/03/09 02:57:14;;;;;;;4.17;3.83;;;3.80;98.20;;;;;;5049074;28;21121;-74
2023/03/09 02:59:41;;;;;;;1.60;1.47;;;3.70;98.20;;;;;;5066081;28;20832;-74
2023/03/09 03:02:09;;;;;;;1.60;1.30;;;3.70;98.20;;;;;;5056895;28;20489;-74
2023/03/09 03:04:37;;;;;;;1.60;1.40;;;3.70;98.20;;;;;;5065386;28;20560;-73
2023/03/09 03:07:03;;;;;;;1.60;1.33;;;3.70;98.20;;;;;;5054968;28;20512;-74
2023/03/09 03:09:30;;;;;;;1.63;1.30;;;3.60;98.20;;;;;;5064669;28;20472;-74
2023/03/09 03:11:57;;;;;;;1.60;1.40;;;3.60;98.20;;;;;;5054099;28;20881;-74
2023/03/09 03:14:24;;;;;;;1.63;1.40;;;3.60;98.20;;;;;;5061403;28;20507;-74
2023/03/09 03:16:50;;;;;;;1.60;1.30;;;3.60;98.20;;;;;;5057760;28;20900;-73
2023/03/09 03:19:18;;;;;;;1.67;1.40;;;3.60;98.20;;;;;;5065469;28;20462;-73
2023/03/09 03:21:47;;;;;;;1.60;1.40;;;3.60;98.20;;;;;;5060687;28;20509;-74
2023/03/09 03:24:14;;;;;;;1.70;1.57;;;3.60;98.20;;;;;;5065811;28;20465;-74
2023/03/09 03:26:41;;;;;;;1.60;1.50;;;3.60;98.20;;;;;;5053201;28;20569;-74
2023/03/09 03:29:08;;;;;;;1.67;1.43;;;3.60;98.20;;;;;;5061517;28;20461;-74
2023/03/09 03:31:35;;;;;;;1.70;1.50;;;3.60;98.20;;;;;;5060507;28;20481;-73
2023/03/09 03:34:02;;;;;;;1.60;1.40;;;3.60;98.20;;;;;;5061631;28;20461;-74
2023/03/09 03:36:30;;;;;;;1.60;1.30;;;3.60;98.20;;;;;;5059634;28;20595;-74
2023/03/09 03:38:57;;;;;;;1.60;1.30;;;3.60;98.20;;;;;;5065380;28;20472;-74
2023/03/09 03:41:23;;;;;;;1.63;1.40;;;3.60;98.20;;;;;;5055140;28;20544;-74
2023/03/09 03:43:50;;;;;;;1.60;1.40;;;3.60;98.20;;;;;;5059879;28;20461;-73
2023/03/09 03:46:17;;;;;;;1.60;1.40;;;3.60;98.20;;;;;;5072595;22;20545;-77
2023/03/09 03:48:45;;;;;;;1.60;1.43;;;3.60;98.20;;;;;;5069302;28;20457;-78
2023/03/09 03:51:13;;;;;;;1.63;1.40;;;3.60;98.20;;;;;;5058852;28;20481;-77
2023/03/09 03:53:42;;;;;;;1.60;1.50;;;3.60;98.20;;;;;;5067198;28;20461;-78
2023/03/09 03:56:09;;;;;;;1.67;1.40;;;3.60;98.20;;;;;;5053154;28;20637;-76
2023/03/09 03:58:36;;;;;;;1.60;1.37;;;3.60;98.20;;;;;;5040938;28;20459;-76
2023/03/09 04:01:05;;;;;;;1.60;1.30;;;3.60;98.20;;;;;;5040713;28;20829;-77
2023/03/09 04:03:32;;;;;;;1.60;1.43;;;3.60;98.20;;;;;;5045913;28;20459;-78
2023/03/09 04:05:58;;;;;;;1.60;1.40;;;3.60;98.20;;;;;;5044529;28;20812;-78
2023/03/09 04:08:25;;;;;;;1.60;1.40;;;3.60;98.20;;;;;;5040270;28;20553;-76
2023/03/09 04:10:54;;;;;;;1.87;1.77;;;3.60;98.20;;;;;;5041490;28;20465;-77
2023/03/09 04:13:21;;;;;;;1.60;1.40;;;3.60;98.20;;;;;;5044677;28;20458;-76
2023/03/09 04:15:47;;;;;;;1.67;1.37;;;3.60;98.20;;;;;;5047829;28;20884;-77
2023/03/09 04:18:16;;;;;;;1.67;1.40;;;3.60;98.20;;;;;;5024455;28;20493;-76
2023/03/09 04:20:44;;;;;;;1.67;1.47;;;3.60;98.20;;;;;;5053237;28;20469;-75
2023/03/09 04:23:11;;;;;;;1.60;1.30;;;3.60;98.20;;;;;;5025675;28;20471;-76
2023/03/09 04:25:38;;;;;;;1.70;1.50;;;3.60;98.20;;;;;;5054352;28;20805;-78
2023/03/09 04:28:06;;;;;;;1.80;1.70;;;3.60;98.20;;;;;;5049397;28;20481;-79
2023/03/09 04:30:33;;;;;;;1.60;1.40;;;3.60;98.20;;;;;;5059029;28;20464;-77
2023/03/09 04:33:00;;;;;;;1.70;1.50;;;3.60;98.20;;;;;;5031757;28;20879;-77
2023/03/09 04:35:27;;;;;;;1.60;1.30;;;3.50;98.20;;;;;;5051111;28;20492;-77
2023/03/09 04:37:54;;;;;;;1.67;1.40;;;3.50;98.20;;;;;;5029034;28;20478;-76
2023/03/09 04:40:21;;;;;;;1.60;1.30;;;3.50;98.20;;;;;;5052265;28;20912;-79
2023/03/09 04:42:48;;;;;;;1.67;1.40;;;3.50;98.20;;;;;;5047904;28;20490;-80
2023/03/09 04:45:16;;;;;;;1.60;1.40;;;3.50;98.20;;;;;;5063375;28;20481;-77
2023/03/09 04:47:43;;;;;;;1.60;1.40;;;3.50;98.20;;;;;;5039573;28;20482;-79
2023/03/09 04:50:11;;;;;;;1.60;1.40;;;3.50;98.20;;;;;;5051467;28;21120;-80
2023/03/09 04:52:38;;;;;;;1.60;1.30;;;3.50;98.20;;;;;;5046322;28;20474;-80
2023/03/09 04:55:05;;;;;;;1.60;1.30;;;3.50;98.20;;;;;;5055470;28;20466;-79
2023/03/09 04:57:32;;;;;;;1.60;1.30;;;3.50;98.20;;;;;;5036410;28;20548;-81
2023/03/09 04:59:59;;;;;;;1.60;1.40;;;3.50;98.20;;;;;;5052702;28;20453;-78
2023/03/09 05:02:28;;;;;;;1.60;1.40;;;3.50;98.20;;;;;;5042184;28;20990;-78
2023/03/09 05:04:55;;;;;;;1.60;1.30;;;3.50;98.20;;;;;;5053504;28;20457;-79
2023/03/09 05:07:22;;;;;;;1.60;1.50;;;3.50;98.20;;;;;;5048294;28;20480;-78
2023/03/09 05:09:49;;;;;;;1.60;1.40;;;3.50;98.20;;;;;;5056546;28;20469;-78
2023/03/09 05:12:15;;;;;;;1.60;1.40;;;3.50;98.20;;;;;;5051687;28;20485;-81
2023/03/09 05:14:42;;;;;;;1.60;1.40;;;3.50;98.20;;;;;;5058975;28;20856;-78
2023/03/09 05:17:09;;;;;;;1.60;1.40;;;3.50;98.20;;;;;;5050142;28;20492;-79
2023/03/09 05:19:38;;;;;;;1.60;1.30;;;3.50;98.20;;;;;;5049793;28;20994;-78
2023/03/09 05:22:05;;;;;;;1.60;1.40;;;3.50;98.20;;;;;;5045640;28;20872;-78
2023/03/09 05:24:32;;;;;;;1.60;1.30;;;3.50;98.20;;;;;;5051870;28;20470;-75
2023/03/09 05:26:59;;;;;;;1.63;1.40;;;3.50;98.20;;;;;;5028396;28;20537;-74
2023/03/09 05:29:26;;;;;;;1.70;1.50;;;3.50;98.20;;;;;;5043940;28;20458;-76
2023/03/09 05:31:52;;;;;;;1.60;1.30;;;3.50;98.20;;;;;;5036448;28;20995;-76
2023/03/09 05:34:19;;;;;;;1.60;1.30;;;3.50;98.20;;;;;;5046041;28;20459;-78
2023/03/09 05:36:47;;;;;;;1.60;1.30;;;3.50;98.20;;;;;;5035724;28;20479;-77
2023/03/09 05:39:14;;;;;;;1.77;1.67;;;3.50;98.20;;;;;;5049131;28;20473;-77
2023/03/09 05:41:41;;;;;;;1.67;1.40;;;3.50;98.20;;;;;;5032520;28;20972;-74
2023/03/09 05:44:08;;;;;;;1.63;1.43;;;3.50;98.20;;;;;;5039549;28;20879;-75
2023/03/09 05:46:35;;;;;;;1.60;1.30;;;3.50;98.20;;;;;;5041873;28;20490;-77
2023/03/09 05:49:01;;;;;;;1.60;1.30;;;3.50;98.20;;;;;;5044223;28;20853;-76
2023/03/09 05:51:29;;;;;;;1.70;1.60;;;3.50;98.20;;;;;;5039226;28;20841;-76
2023/03/09 05:53:57;;;;;;;1.63;1.50;;;3.50;98.20;;;;;;5047404;28;20865;-76
2023/03/09 05:56:24;;;;;;;1.63;1.30;;;3.50;98.20;;;;;;5037765;28;20478;-76
2023/03/09 05:58:51;;;;;;;1.70;1.50;;;3.50;98.20;;;;;;5045149;28;20485;-76
2023/03/09 06:01:20;;;;;;;1.60;1.40;;;3.50;98.20;;;;;;5036009;28;20514;-76
2023/03/09 06:03:48;;;;;;;1.67;1.50;;;3.50;98.20;;;;;;5038074;28;20459;-75
2023/03/09 06:06:16;;;;;;;1.70;1.60;;;3.50;98.20;;;;;;5034286;28;20585;-75
2023/03/09 06:08:43;;;;;;;1.60;1.30;;;3.50;98.20;;;;;;5039517;28;20459;-75
2023/03/09 06:11:11;;;;;;;1.60;1.30;;;3.50;98.20;;;;;;5034223;28;20907;-75
2023/03/09 06:13:38;;;;;;;1.60;1.40;;;3.50;98.20;;;;;;5036023;28;20469;-75
2023/03/09 06:16:07;;;;;;;1.70;1.40;;;3.50;98.20;;;;;;5034646;28;20592;-74
2023/03/09 06:18:34;;;;;;;1.70;1.50;;;3.50;98.20;;;;;;5045886;28;20483;-74
2023/03/09 06:21:02;;;;;;;1.60;1.40;;;3.50;98.20;;;;;;5039205;28;20457;-75
2023/03/09 06:23:28;;;;;;;1.60;1.30;;;3.50;98.20;;;;;;5038707;28;20541;-75
2023/03/09 06:25:55;;;;;;;1.60;1.33;;;3.50;98.20;;;;;;5029292;28;20486;-75
2023/03/09 06:28:24;;;;;;;1.60;1.40;;;3.50;98.20;;;;;;5027248;28;20466;-74
2023/03/09 06:30:51;;;;;;;1.60;1.37;;;3.50;98.20;;;;;;5040725;28;20783;-74
2023/03/09 06:33:18;;;;;;;1.67;1.40;;;3.50;98.20;;;;;;5040978;28;20545;-74
2023/03/09 06:35:45;;;;;;;1.60;1.30;;;3.50;98.20;;;;;;5047432;28;20481;-74
2023/03/09 06:38:11;;;;;;;1.60;1.40;;;3.50;98.20;;;;;;5046671;28;20497;-75
2023/03/09 06:40:38;;;;;;;1.60;1.40;;;3.50;98.20;;;;;;5043509;28;20465;-74
2023/03/09 06:43:05;;;;;;;1.63;1.47;;;3.50;98.20;;;;;;5047738;28;21001;-74
2023/03/09 06:45:34;;;;;;;1.60;1.40;;;3.60;98.20;;;;;;5050212;28;21017;-75
2023/03/09 06:48:00;;;;;;;1.60;1.30;;;3.60;98.20;;;;;;5023633;28;20482;-74
2023/03/09 06:50:27;;;;;;;1.60;1.40;;;3.60;98.20;;;;;;5050238;28;20455;-75
2023/03/09 06:52:54;;;;;;;1.60;1.40;;;3.60;98.20;;;;;;5026650;28;20485;-75
2023/03/09 06:55:21;;;;;;;1.60;1.40;;;3.60;98.20;;;;;;5051431;28;20482;-74
2023/03/09 06:57:47;;;;;;;1.63;1.50;;;3.70;98.20;;;;;;5027164;28;20481;-74
2023/03/09 07:00:15;;;;;;;1.63;1.40;;;3.70;98.20;;;;;;5040192;28;20975;-75
2023/03/09 07:02:43;;;;;;;1.60;1.40;;;3.70;98.20;;;;;;5033200;28;20486;-74
2023/03/09 07:05:11;;;;;;;1.60;1.30;;;3.80;98.20;;;;;;5040453;28;20458;-75
2023/03/09 07:07:37;;;;;;;1.60;1.30;;;3.80;98.20;;;;;;5032673;28;20485;-75
2023/03/09 07:10:05;;;;;;;1.60;1.30;;;3.80;98.20;;;;;;5043345;28;20469;-74
2023/03/09 07:12:32;;;;;;;1.70;1.40;;;3.90;98.20;;;;;;5029924;28;20478;-77
2023/03/09 07:14:58;;;;;;;1.70;1.60;;;3.90;98.20;;;;;;5043525;28;20466;-77
2023/03/09 07:17:25;;;;;;;1.60;1.40;;;3.90;98.20;;;;;;5036011;28;20482;-74
2023/03/09 07:19:54;;;;;;;1.60;1.30;;;3.90;98.20;;;;;;5049286;28;20469;-76
2023/03/09 07:22:21;;;;;;;1.70;1.50;;;4.00;98.20;;;;;;5038582;28;20561;-77
2023/03/09 07:24:47;;;;;;;1.60;1.40;;;4.00;98.20;;;;;;5044313;28;20472;-77
2023/03/09 07:27:14;;;;;;;1.63;1.37;;;4.10;98.20;;;;;;5038580;28;20497;-75
2023/03/09 07:29:41;;;;;;;1.60;1.40;;;4.10;98.20;;;;;;5048422;28;20545;-74
2023/03/09 07:32:08;;;;;;;1.70;1.40;;;4.20;98.20;;;;;;5036295;28;20489;-74
2023/03/09 07:34:35;;;;;;;1.60;1.30;;;4.20;98.20;;;;;;5049614;28;20884;-75
2023/03/09 07:37:03;;;;;;;1.60;1.30;;;4.20;98.20;;;;;;5035606;28;20478;-76
2023/03/09 07:39:30;;;;;;;1.60;1.30;;;4.30;98.20;;;;;;5048389;28;20546;-75
2023/03/09 07:41:57;;;;;;;1.60;1.40;;;4.30;98.20;;;;;;5034012;28;20478;-75
2023/03/09 07:44:24;;;;;;;1.60;1.43;;;4.40;98.20;;;;;;5047017;28;20963;-75
2023/03/09 07:46:50;;;;;;;1.60;1.30;;;4.40;98.20;;;;;;5033467;28;20877;-75
2023/03/09 07:49:18;;;;;;;1.63;1.30;;;4.40;98.20;;;;;;5043357;28;20458;-75
2023/03/09 07:51:45;;;;;;;1.60;1.30;;;4.50;98.20;;;;;;5036556;28;20582;-75
2023/03/09 07:54:14;;;;;;;1.63;1.30;;;4.50;98.20;;;;;;5042577;28;20844;-74
2023/03/09 07:56:41;;;;;;;1.60;1.30;;;4.60;98.20;;;;;;5033714;28;20493;-74
2023/03/09 07:59:13;;;;;;;1.60;1.20;;;4.60;98.20;;;;;;5044721;28;20482;-76
2023/03/09 08:01:40;;;;;;;1.70;1.40;;;4.70;98.20;;;;;;5030092;28;20556;-74
2023/03/09 08:04:07;;;;;;;1.60;1.30;;;4.70;98.20;;;;;;5046311;28;20465;-77
2023/03/09 08:06:34;;;;;;;1.60;1.40;;;4.70;98.20;;;;;;5031603;28;20673;-76
2023/03/09 08:09:01;;;;;;;1.60;1.30;;;4.70;98.20;;;;;;5047707;28;20462;-77
2023/03/09 08:11:29;;;;;;;1.60;1.30;;;4.80;98.20;;;;;;5044453;28;20489;-77
2023/03/09 08:13:56;;;;;;;1.60;1.20;;;4.80;98.20;;;;;;5040299;28;20458;-78
2023/03/09 08:16:24;;;;;;;1.60;1.30;;;4.80;98.20;;;;;;5037435;28;21082;-77
2023/03/09 08:18:50;;;;;;;1.60;1.30;;;4.80;98.20;;;;;;5048712;28;20493;-76
2023/03/09 08:21:17;;;;;;;1.60;1.30;;;4.90;98.20;;;;;;5038606;28;20493;-78
2023/03/09 08:23:44;;;;;;;1.60;1.40;;;5.00;98.20;;;;;;5046596;28;20461;-78
2023/03/09 08:26:12;;;;;;;1.70;1.50;;;5.00;98.20;;;;;;5031117;28;20574;-76
2023/03/09 08:28:41;;;;;;;1.60;1.30;;;5.10;98.20;;;;;;5049236;28;20458;-78
2023/03/09 08:31:10;;;;;;;1.60;1.30;;;5.10;98.20;;;;;;5041248;28;20467;-78
2023/03/09 08:33:37;;;;;;;1.60;1.27;;;5.20;98.20;;;;;;5052184;28;20461;-79
2023/03/09 08:36:11;;;;;;;1.60;1.20;;;5.20;98.20;;;;;;5038959;28;20505;-77
2023/03/09 08:38:38;;;;;;;1.60;1.30;;;5.30;98.20;;;;;;5041026;28;20483;-77
2023/03/09 08:41:05;;;;;;;1.60;1.30;;;5.30;98.20;;;;;;5036183;28;20470;-75
2023/03/09 08:43:31;;;;;;;1.60;1.20;;;5.30;98.20;;;;;;5047130;28;20486;-75
2023/03/09 08:46:00;;;;;;;1.60;1.30;;;5.40;98.20;;;;;;5036629;28;20493;-77
2023/03/09 08:48:26;;;;;;;1.60;1.30;;;5.40;98.20;;;;;;5036454;28;20828;-78
2023/03/09 08:50:53;;;;;;;1.67;1.33;;;5.40;98.20;;;;;;5037089;28;20546;-77
2023/03/09 08:53:20;;;;;;;1.60;1.30;;;5.40;98.20;;;;;;5040421;28;20464;-77
2023/03/09 08:55:47;;;;;;;1.70;1.50;;;5.40;98.20;;;;;;5050690;28;20481;-76
2023/03/09 08:58:13;;;;;;;1.60;1.30;;;5.50;98.20;;;;;;5050249;28;21042;-77
2023/03/09 09:00:40;;;;;;;1.60;1.27;;;5.50;98.20;;;;;;5044285;28;20492;-76
2023/03/09 09:03:08;;;;;;;2.03;1.37;;;5.50;98.20;;;;;;5026097;28;20474;-77
2023/03/09 09:05:36;;;;;;;1.63;1.30;;;5.50;98.20;;;;;;5032424;28;20856;-77
2023/03/09 09:08:04;;;;;;;1.60;1.20;;;5.50;98.20;;;;;;5023849;28;20588;-77
2023/03/09 09:10:31;;;;;;;1.67;1.30;;;5.50;98.20;;;;;;5033575;28;20842;-77
2023/03/09 09:12:58;;;;;;;1.60;1.30;;;5.60;98.20;;;;;;5028513;28;20478;-77
2023/03/09 09:15:24;;;;;;;1.60;1.30;;;5.60;98.20;;;;;;5035401;28;20475;-78
2023/03/09 09:17:54;;;;;;;1.63;1.20;;;5.60;98.20;;;;;;5024756;28;20486;-78
2023/03/09 09:20:22;;;;;;;1.60;1.30;;;5.70;98.20;;;;;;5031685;28;20470;-77
2023/03/09 09:22:49;;;;;;;1.70;1.50;;;5.80;98.20;;;;;;5026944;28;20490;-77
2023/03/09 09:25:16;;;;;;;1.63;1.30;;;5.80;98.20;;;;;;5030587;28;20532;-77
2023/03/09 09:27:42;;;;;;;1.60;1.30;;;5.80;98.20;;;;;;5023760;28;20483;-77
2023/03/09 09:30:11;;;;;;;1.60;1.20;;;5.80;98.20;;;;;;5035483;28;20458;-76
2023/03/09 09:32:40;;;;;;;1.67;1.40;;;5.90;98.20;;;;;;5028399;28;20574;-75
2023/03/09 09:35:07;;;;;;;1.70;1.40;;;5.80;98.20;;;;;;5033155;28;20883;-76
2023/03/09 09:37:35;;;;;;;1.60;1.30;;;5.80;98.20;;;;;;5026725;28;20483;-75
2023/03/09 09:40:02;;;;;;;1.77;1.53;;;5.80;98.20;;;;;;5030743;28;20470;-76
2023/03/09 09:42:32;;;;;;;1.60;1.20;;;5.90;98.20;;;;;;5008372;28;20486;-76
2023/03/09 09:45:00;;;;;;;1.60;1.20;;;5.90;98.20;;;;;;5032064;28;20536;-76
2023/03/09 09:47:30;;;;;;;1.60;1.30;;;5.90;98.20;;;;;;5036897;22;20497;-71
2023/03/09 09:49:59;;;;;;;1.60;1.30;;;6.00;98.20;;;;;;5010592;28;20463;-74
2023/03/09 09:52:47;;;;;;;1.67;1.33;;;6.10;98.20;;;;;;5001878;28;21019;-74
2023/03/09 09:55:26;;;;;;;1.70;1.40;;;6.20;98.20;;;;;;5001385;28;20819;-74
2023/03/09 09:58:01;;;;;;;1.60;1.20;;;6.30;98.20;;;;;;5000525;28;20491;-75
2023/03/09 10:00:35;;;;;;;1.60;1.20;;;6.30;98.20;;;;;;5005302;28;20463;-75
2023/03/09 10:03:10;;;;;;;1.60;1.20;;;6.40;98.20;;;;;;4972347;28;20991;-74
2023/03/09 10:05:47;;;;;;;1.60;1.20;;;6.40;98.20;;;;;;5008651;28;20490;-73
2023/03/09 10:08:38;;;;;;;1.70;1.60;;;6.60;98.20;;;;;;4980030;28;20472;-72
2023/03/09 10:11:14;;;;;;;1.60;1.30;;;6.70;98.20;;;;;;5001445;28;20475;-75
2023/03/09 10:13:44;;;;;;;1.60;1.20;;;6.80;98.20;;;;;;5015991;28;20460;-72
2023/03/09 10:16:16;;;;;;;1.67;1.30;;;6.80;98.20;;;;;;4990260;28;20488;-72
2023/03/09 10:18:47;;;;;;;1.63;1.30;;;6.90;98.20;;;;;;4991705;28;20500;-72
2023/03/09 10:21:18;;;;;;;1.60;1.20;;;6.90;98.20;;;;;;4988348;28;20568;-72
2023/03/09 10:23:47;;;;;;;1.60;1.20;;;6.90;98.20;;;;;;4996059;28;20476;-73
2023/03/09 10:26:31;;;;;;;1.60;1.20;;;7.00;98.20;;;;;;4991866;28;20949;-73
2023/03/09 10:29:02;;;;;;;1.60;1.20;;;6.90;98.20;;;;;;4997961;28;20455;-72
2023/03/09 10:31:37;;;;;;;1.60;1.20;;;6.90;98.20;;;;;;4992718;28;21020;-72
2023/03/09 10:34:13;;;;;;;9.13;2.63;;;6.90;98.20;;;;;;4995850;28;21027;-74
2023/03/09 10:36:45;;;;;;;1.60;1.27;;;6.90;98.20;;;;;;4990514;28;20496;-74
2023/03/09 10:39:17;;;;;;;1.60;1.20;;;6.90;98.20;;;;;;4993638;28;20818;-73
2023/03/09 10:41:44;;;;;;;1.60;1.30;;;6.90;98.20;;;;;;4989603;28;20516;-74
2023/03/09 10:44:15;;;;;;;1.60;1.20;;;6.90;98.20;;;;;;5001646;28;20471;-74
2023/03/09 10:46:59;;;;;;;1.60;1.20;;;7.00;98.20;;;;;;4991286;28;21103;-74
2023/03/09 10:49:27;;;;;;;1.60;1.20;;;7.10;98.20;;;;;;5005085;28;20485;-74
2023/03/09 10:52:00;;;;;;;1.60;1.20;;;7.10;98.20;;;;;;4996913;28;20489;-74
2023/03/09 10:54:35;;;;;;;1.60;1.20;;;7.10;98.20;;;;;;5006572;28;20462;-74
2023/03/09 10:57:02;;;;;;;1.60;1.20;;;7.10;98.20;;;;;;4990916;28;20490;-73
2023/03/09 10:59:30;;;;;;;1.60;1.10;;;7.20;98.20;;;;;;5006274;28;21033;-74
2023/03/09 11:01:59;;;;;;;1.63;1.30;;;7.20;98.20;;;;;;4988518;28;20911;-74
2023/03/09 11:04:34;;;;;;;1.63;1.20;;;7.20;98.20;;;;;;5002769;28;20472;-72
2023/03/09 11:07:02;;;;;;;1.60;1.20;;;7.20;98.20;;;;;;5003025;28;21005;-75
2023/03/09 11:09:36;;;;;;;1.60;1.30;;;7.20;98.20;;;;;;5011813;28;20656;-73
2023/03/09 11:12:18;;;;;;;5.10;3.37;;;7.20;98.20;;;;;;4987014;28;20481;-72
2023/03/09 11:14:49;;;;;;;1.60;1.20;;;7.20;98.20;;;;;;5004747;28;20464;-73
2023/03/09 11:17:37;;;;;;;1.60;1.20;;;7.20;98.20;;;;;;4983049;28;20499;-75
2023/03/09 11:20:28;;;;;;;1.60;1.20;;;7.20;98.20;;;;;;5006153;28;20884;-73
2023/03/09 11:23:16;;;;;;;1.60;1.20;;;7.20;98.20;;;;;;4981815;28;20903;-74
2023/03/09 11:26:09;;;;;;;1.60;1.20;;;7.10;98.20;;;;;;5007477;28;20490;-74
2023/03/09 11:28:53;;;;;;;1.60;1.30;;;7.10;98.20;;;;;;4975412;28;20483;-74
2023/03/09 11:31:23;;;;;;;1.60;1.30;;;7.10;98.20;;;;;;4993509;28;20482;-74
2023/03/09 11:33:52;;;;;;;1.60;1.23;;;7.10;98.20;;;;;;5017667;28;20467;-74
2023/03/09 11:36:23;;;;;;;1.60;1.30;;;7.00;98.20;;;;;;4992526;28;20531;-74
2023/03/09 11:38:50;;;;;;;1.60;1.20;;;6.90;98.20;;;;;;4995916;28;20482;-74
2023/03/09 11:41:23;;;;;;;1.60;1.20;;;7.00;98.20;;;;;;4990784;28;20503;-74
2023/03/09 11:43:57;;;;;;;1.60;1.20;;;7.00;98.20;;;;;;5017277;28;20460;-74
2023/03/09 11:46:25;;;;;;;1.60;1.27;;;7.10;98.20;;;;;;4996070;28;20538;-74
2023/03/09 11:48:57;;;;;;;1.60;1.30;;;7.10;98.20;;;;;;5015165;28;20922;-74
2023/03/09 11:51:27;;;;;;;1.60;1.20;;;7.10;98.20;;;;;;4998277;28;20536;-74
2023/03/09 11:54:02;;;;;;;1.60;1.30;;;7.10;98.20;;;;;;5016659;28;20927;-74
2023/03/09 11:56:34;;;;;;;1.60;1.37;;;7.10;98.20;;;;;;4987911;28;21110;-74
2023/03/09 11:59:11;;;;;;;1.60;1.30;;;7.10;98.20;;;;;;4996622;28;20905;-74
2023/03/09 12:01:43;;;;;;;1.60;1.30;;;7.10;98.20;;;;;;4989272;28;20612;-74
2023/03/09 12:04:11;;;;;;;1.60;1.20;;;7.10;98.20;;;;;;4990887;28;20468;-74
2023/03/09 12:06:50;;;;;;;1.60;1.20;;;7.20;98.20;;;;;;4987135;28;20520;-74
2023/03/09 12:09:26;;;;;;;1.60;1.30;;;7.20;98.20;;;;;;4998663;28;20555;-74
2023/03/09 12:11:58;;;;;;;1.60;1.13;;;7.20;98.20;;;;;;4983905;28;20492;-74
2023/03/09 12:14:31;;;;;;;1.60;1.20;;;7.30;98.20;;;;;;4994189;28;20475;-75
2023/03/09 12:17:03;;;;;;;1.60;1.20;;;7.40;98.20;;;;;;4983526;28;20607;-74
2023/03/09 12:19:33;;;;;;;1.60;1.20;;;7.40;98.20;;;;;;4995075;28;20488;-73
2023/03/09 12:22:03;;;;;;;1.60;1.20;;;7.40;98.20;;;;;;5011338;28;20534;-74
2023/03/09 12:24:37;;;;;;;1.60;1.20;;;7.30;98.20;;;;;;5012721;28;20494;-75
2023/03/09 12:27:14;;;;;;;1.60;1.30;;;7.30;98.20;;;;;;4984533;28;20902;-76
2023/03/09 12:29:47;;;;;;;2.23;2.03;;;7.30;98.20;;;;;;4989099;28;21318;-75
2023/03/09 12:32:35;;;;;;;1.60;1.30;;;7.30;98.20;;;;;;5001206;28;20479;-74
2023/03/09 12:35:46;;;;;;;1.60;1.20;;;7.40;98.20;;;;;;4997651;28;20475;-75
2023/03/09 12:38:26;;;;;;;1.57;1.20;;;7.50;98.20;;;;;;4958746;28;20542;-77
2023/03/09 12:40:54;;;;;;;1.60;1.10;;;7.50;98.20;;;;;;4991966;28;20476;-74
2023/03/09 12:43:49;;;;;;;1.60;1.20;;;7.50;98.20;;;;;;4984133;28;20474;-75
2023/03/09 12:46:49;;;;;;;1.60;1.20;;;7.50;98.20;;;;;;4993293;28;20538;-77
2023/03/09 12:49:18;;;;;;;1.60;1.20;;;7.40;98.20;;;;;;5003255;28;20539;-76
2023/03/09 12:51:52;;;;;;;1.60;1.30;;;7.30;98.20;;;;;;4996061;28;20496;-76
2023/03/09 12:54:25;;;;;;;1.60;1.20;;;7.30;98.20;;;;;;5013546;28;20468;-75
2023/03/09 12:56:53;;;;;;;1.60;1.20;;;7.30;98.20;;;;;;4983864;28;20497;-75
2023/03/09 12:59:28;;;;;;;1.67;1.30;;;7.30;98.20;;;;;;4998979;28;20798;-79
2023/03/09 13:01:56;;;;;;;1.60;1.23;;;7.30;98.20;;;;;;4985359;28;20555;-78
2023/03/09 13:04:26;;;;;;;1.60;1.30;;;7.30;98.20;;;;;;5000238;28;20851;-76
2023/03/09 13:06:56;;;;;;;1.60;1.10;;;7.30;98.20;;;;;;4991043;28;20584;-77
2023/03/09 13:09:29;;;;;;;1.60;1.20;;;7.30;98.20;;;;;;5013275;28;20464;-76